»·PEaware :: AAY67 KMRY-KLAS

AAY67 :: KMRY-KLAS

FLIGHT INFORMATION

Flight Status: Arrived
Operator:
Allegiant Air
More flights by this operator :: More flights under this callsign
Pilot: Skye D. (10623)
Aircraft: AIRBUS A319
(A319)
More flights by this aircraft type
Origin: KMRY Monterey Peninsula
United States
Destination: KLAS McCarran Intl
United States
More flights between these airports :: More routes between these airports
Route: SNS PXN NTELL BIH LIDAT J92 BTY SUNST4
File this flight plan on PilotEdge
Remarks:
Altitude:
(Current/Filed)
35,000ft
Speed:
(Current/Filed)
449kts
Departed: 28-Sep-18 01:14 PM
Arrived: 28-Sep-18 02:27 PM
Distance/Time
Traveled:
325nm/1:13
Distance/Time
To Go:
Arrived

Flight Plot

Page will automatically refresh every two minutes.

Flight plan parsing failed; only flown route is shown


Map Options




Map Legend


Flown Route
Filed Route
Departure Airport
Arrival Airport
Navaid (VOR, NDB)
Fix

Horizontal Profiles

Position Reports

Time Latitude Longitude Heading Altitude Ground
Speed
28-Sep-18 12:46 36.587082 -121.848502 69 193ft 0kts
28-Sep-18 12:47 36.587082 -121.848502 69 193ft 0kts
28-Sep-18 12:48 36.587082 -121.848502 69 193ft 0kts
28-Sep-18 12:49 36.587082 -121.848502 69 193ft 0kts
28-Sep-18 12:50 36.587082 -121.848502 69 193ft 0kts
28-Sep-18 12:51 36.587082 -121.848502 69 193ft 0kts
28-Sep-18 12:52 36.587082 -121.848502 69 193ft 0kts
28-Sep-18 12:53 36.587082 -121.848502 69 193ft 0kts
28-Sep-18 12:54 36.587082 -121.848502 69 193ft 0kts
28-Sep-18 12:55 36.587082 -121.848502 69 193ft 0kts
28-Sep-18 12:56 36.587082 -121.848502 69 193ft 0kts
28-Sep-18 12:57 36.587082 -121.848502 69 193ft 0kts
28-Sep-18 12:58 36.587082 -121.848502 69 193ft 0kts
28-Sep-18 12:59 36.587082 -121.848502 69 193ft 0kts
28-Sep-18 13:00 36.587082 -121.848502 69 193ft 0kts
28-Sep-18 13:01 36.587082 -121.848502 69 193ft 0kts
28-Sep-18 13:02 36.587082 -121.848502 69 193ft 0kts
28-Sep-18 13:03 36.587082 -121.848502 69 193ft 0kts
28-Sep-18 13:04 36.587082 -121.848502 69 193ft 0kts
28-Sep-18 13:05 36.587082 -121.848502 69 193ft 0kts
28-Sep-18 13:06 36.587082 -121.848502 69 193ft 0kts
28-Sep-18 13:07 36.587082 -121.848502 69 193ft 0kts
28-Sep-18 13:08 36.587082 -121.848502 69 193ft 0kts
28-Sep-18 13:09 36.587082 -121.848502 69 193ft 0kts
28-Sep-18 13:10 36.587082 -121.848502 69 193ft 0kts
28-Sep-18 13:11 36.586650 -121.846013 131 199ft 11kts
28-Sep-18 13:12 36.585269 -121.842123 113 230ft 21kts
28-Sep-18 13:13 36.582921 -121.835258 111 246ft 14kts
28-Sep-18 13:14 36.582856 -121.834827 92 244ft 0kts
28-Sep-18 13:15 36.583372 -121.833555 295 236ft 4kts
28-Sep-18 13:16 36.586733 -121.843660 292 207ft 141kts
28-Sep-18 13:17 36.604066 -121.879866 325 2434ft 178kts
28-Sep-18 13:18 36.645475 -121.893652 342 4483ft 235kts
28-Sep-18 13:19 36.696697 -121.900805 21 6434ft 293kts
28-Sep-18 13:20 36.730317 -121.852201 85 8842ft 294kts
28-Sep-18 13:21 36.716703 -121.787175 114 10928ft 306kts
28-Sep-18 13:22 36.695417 -121.714746 112 12059ft 355kts
28-Sep-18 13:23 36.671580 -121.629379 109 14251ft 370kts
28-Sep-18 13:24 36.667479 -121.531814 88 16308ft 391kts
28-Sep-18 13:25 36.674617 -121.426624 88 18211ft 403kts
28-Sep-18 13:26 36.682254 -121.310027 89 20067ft 416kts
28-Sep-18 13:27 36.689157 -121.206734 89 21512ft 426kts
28-Sep-18 13:28 36.696037 -121.096951 89 22888ft 437kts
28-Sep-18 13:29 36.703030 -120.983066 89 24192ft 446kts
28-Sep-18 13:30 36.710868 -120.853607 89 25525ft 456kts
28-Sep-18 13:31 36.724572 -120.732044 79 26647ft 469kts
28-Sep-18 13:32 36.751611 -120.603209 77 27743ft 478kts
28-Sep-18 13:33 36.778951 -120.473055 77 28746ft 485kts
28-Sep-18 13:34 36.810329 -120.321990 78 30235ft 482kts
28-Sep-18 13:35 36.836293 -120.198519 77 31405ft 480kts
28-Sep-18 13:36 36.860786 -120.079738 77 32438ft 479kts
28-Sep-18 13:37 36.890043 -119.936393 77 33576ft 478kts
28-Sep-18 13:38 36.928998 -119.795558 69 34614ft 479kts
28-Sep-18 13:39 36.972472 -119.659906 69 34918ft 492kts
28-Sep-18 13:40 37.013488 -119.530896 69 34918ft 495kts
28-Sep-18 13:41 37.054106 -119.402440 69 34918ft 495kts
28-Sep-18 13:42 37.095733 -119.271194 69 34917ft 495kts
28-Sep-18 13:43 37.134211 -119.150680 69 34912ft 493kts
28-Sep-18 13:44 37.176832 -119.014940 69 34925ft 494kts
28-Sep-18 13:45 37.221459 -118.871256 69 35068ft 494kts
28-Sep-18 13:46 37.263110 -118.736518 69 35150ft 493kts
28-Sep-18 13:47 37.299620 -118.617843 68 35125ft 494kts
28-Sep-18 13:48 37.348873 -118.457019 70 35090ft 494kts
28-Sep-18 13:49 37.374749 -118.337951 80 35081ft 493kts
28-Sep-18 13:50 37.386960 -118.181686 87 35077ft 491kts
28-Sep-18 13:51 37.393386 -118.052166 87 35075ft 492kts
28-Sep-18 13:52 37.400925 -117.899872 87 35075ft 492kts
28-Sep-18 13:53 37.406979 -117.775204 87 35075ft 492kts
28-Sep-18 13:54 37.413571 -117.636021 87 35075ft 492kts
28-Sep-18 13:55 37.421517 -117.466771 87 35075ft 492kts
28-Sep-18 13:56 37.404306 -117.300704 117 35113ft 485kts
28-Sep-18 13:57 37.316742 -117.179305 150 35158ft 474kts
28-Sep-18 13:58 37.207727 -117.088596 149 35162ft 473kts
28-Sep-18 13:59 37.102444 -116.999915 149 35157ft 473kts
28-Sep-18 14:00 37.010941 -116.922932 149 35095ft 473kts
28-Sep-18 14:01 36.912095 -116.840004 149 35057ft 474kts
28-Sep-18 14:02 36.814980 -116.753786 142 33113ft 478kts
28-Sep-18 14:03 36.726746 -116.642880 132 29857ft 477kts
28-Sep-18 14:04 36.646023 -116.527436 133 26351ft 473kts
28-Sep-18 14:05 36.567189 -116.415534 132 24042ft 437kts
28-Sep-18 14:06 36.495027 -116.312797 133 23434ft 410kts
28-Sep-18 14:07 36.426498 -116.215391 133 22559ft 357kts
28-Sep-18 14:08 36.366501 -116.131188 134 20785ft 344kts
28-Sep-18 14:09 36.308598 -116.050093 134 18970ft 333kts
28-Sep-18 14:10 36.249660 -115.967726 134 17077ft 323kts
28-Sep-18 14:11 36.199281 -115.891241 122 16055ft 308kts
28-Sep-18 14:12 36.170615 -115.805840 114 16045ft 302kts
28-Sep-18 14:13 36.144849 -115.725544 114 14966ft 300kts
28-Sep-18 14:14 36.120603 -115.650421 114 13927ft 296kts
28-Sep-18 14:15 36.094992 -115.571331 114 12841ft 292kts
28-Sep-18 14:16 36.067506 -115.486613 114 11688ft 286kts
28-Sep-18 14:17 36.040847 -115.404563 114 10979ft 267kts
28-Sep-18 14:18 36.027275 -115.322875 96 10412ft 262kts
28-Sep-18 14:19 36.021863 -115.242261 97 9382ft 255kts
28-Sep-18 14:20 36.016676 -115.168482 98 7953ft 239kts
28-Sep-18 14:21 36.011991 -115.100297 97 6513ft 220kts
28-Sep-18 14:22 36.010643 -115.038445 92 5418ft 199kts
28-Sep-18 14:23 36.010886 -114.983737 66 4130ft 197kts
28-Sep-18 14:24 36.051766 -114.970209 322 3819ft 209kts
28-Sep-18 14:25 36.077303 -115.016219 259 3803ft 185kts
28-Sep-18 14:26 36.073783 -115.069199 269 2989ft 168kts
28-Sep-18 14:27 36.073691 -115.115691 270 2264ft 152kts
28-Sep-18 14:28 36.073694 -115.148728 269 2116ft 56kts
28-Sep-18 14:29 36.074950 -115.155755 300 2141ft 6kts
28-Sep-18 14:30 36.078017 -115.157577 90 2142ft 10kts
28-Sep-18 14:31 36.078255 -115.153316 34 2125ft 10kts
28-Sep-18 14:32 36.080503 -115.151132 6 2112ft 16kts
28-Sep-18 14:33 36.081037 -115.148166 61 2100ft 7kts
28-Sep-18 14:34 36.081161 -115.147861 65 2099ft 0kts
28-Sep-18 14:35 36.081161 -115.147861 65 2099ft 0kts

Navigation Log

Ident Type
Flight plan parsing failed, navigation log unavailable